createdAt,value
2023-10-05T12:25:47.353Z,4.47
2023-10-05T12:28:17.585Z,4.00
2023-10-05T12:32:31.764Z,3.93
2023-10-05T19:47:10.272Z,1.30
2023-10-05T19:49:39.773Z,1.53
2023-10-05T19:52:10.251Z,1.63
2023-10-05T19:54:38.469Z,1.43
2023-10-05T19:57:06.707Z,1.70
2023-10-05T19:59:35.364Z,1.63
2023-10-05T20:02:15.549Z,1.90
2023-10-05T20:04:52.612Z,1.97
2023-10-05T20:07:37.072Z,1.60
2023-10-05T20:10:07.913Z,1.83
2023-10-05T20:12:36.120Z,1.63
2023-10-05T20:15:04.464Z,1.87
2023-10-05T20:17:32.961Z,1.47
2023-10-05T20:20:01.426Z,1.60
2023-10-05T20:22:29.879Z,1.40
2023-10-05T20:24:58.152Z,1.50
2023-10-05T20:27:26.601Z,1.40
2023-10-05T20:29:55.067Z,1.40
2023-10-05T20:32:23.495Z,1.40
2023-10-05T20:34:51.847Z,1.37
2023-10-05T20:37:20.169Z,1.40
2023-10-05T20:39:50.801Z,1.90
2023-10-05T20:42:19.575Z,1.20
2023-10-05T20:44:50.016Z,1.67
2023-10-05T20:48:46.490Z,1.47
2023-10-05T20:51:15.108Z,1.57
2023-10-05T20:53:43.778Z,1.40
2023-10-05T20:56:16.328Z,1.43
2023-10-05T20:58:45.797Z,1.43
2023-10-05T21:01:14.216Z,1.67
2023-10-05T21:03:43.822Z,1.83
2023-10-05T21:06:14.098Z,1.50
2023-10-05T21:08:46.242Z,1.80
2023-10-05T22:29:51.320Z,17.13
2023-10-05T22:34:10.809Z,17.67
2023-10-05T22:36:39.179Z,17.90
2023-10-05T22:39:08.150Z,16.53
2023-10-05T22:41:37.123Z,17.20
2023-10-05T22:44:06.532Z,16.53
2023-10-05T22:46:35.394Z,14.03
2023-10-05T22:49:03.921Z,15.90
2023-10-05T22:51:32.831Z,14.73
2023-10-05T22:54:01.231Z,14.30
2023-10-05T22:56:33.016Z,12.77
2023-10-05T22:59:06.207Z,13.30
2023-10-05T23:01:43.497Z,12.30
2023-10-05T23:04:14.156Z,13.30
2023-10-05T23:06:42.701Z,12.80
2023-10-05T23:09:11.601Z,12.23
2023-10-05T23:11:43.362Z,12.07
2023-10-05T23:14:13.825Z,10.93
2023-10-05T23:16:42.579Z,10.47
2023-10-05T23:19:13.977Z,10.67
2023-10-05T23:21:45.952Z,9.60
2023-10-05T23:24:15.333Z,9.17
2023-10-05T23:26:46.806Z,9.63
2023-10-05T23:29:21.826Z,9.73
2023-10-05T23:31:57.675Z,9.37
2023-10-05T23:34:30.609Z,8.60
2023-10-05T23:37:05.349Z,8.47
2023-10-05T23:39:34.057Z,9.27
2023-10-05T23:42:19.554Z,8.90
2023-10-05T23:44:48.977Z,8.67
2023-10-05T23:47:24.876Z,9.13
2023-10-05T23:49:55.279Z,8.73
2023-10-05T23:52:24.295Z,7.83
2023-10-05T23:54:52.774Z,8.17
2023-10-05T23:57:22.671Z,8.30
2023-10-05T23:59:51.474Z,7.17
